Time;durP1;ratioP1;P1;durP2;ratioP2;P2;SDS_P1;SDS_P2;PMS_P1;PMS_P2;Temp;Humidity;BMP_temperature;BMP_pressure;BME280_temperature;BME280_humidity;BME280_pressure;Samples;Min_cycle;Max_cycle;Signal;HPM_P1;HPM_P2
2022/07/14 00:01:56;;;;;;;4.00;3.30;;;23.60;63.80;;;;;;10379570;28;20042;-61
2022/07/14 00:06:57;;;;;;;4.55;3.10;;;23.60;63.80;;;;;;10380260;28;20564;-60
2022/07/14 00:11:58;;;;;;;4.20;3.25;;;23.60;63.70;;;;;;10378923;28;20105;-60
2022/07/14 00:16:58;;;;;;;5.65;4.00;;;23.60;63.70;;;;;;10367135;28;20022;-60
2022/07/14 00:21:59;;;;;;;4.10;3.35;;;23.60;63.70;;;;;;10380732;28;20045;-60
2022/07/14 00:27:00;;;;;;;4.47;2.95;;;23.60;63.60;;;;;;10400693;28;20026;-61
2022/07/14 00:32:01;;;;;;;5.38;3.13;;;23.60;63.70;;;;;;10385477;28;20033;-60
2022/07/14 00:37:02;;;;;;;3.90;2.65;;;23.60;63.60;;;;;;10374306;28;20091;-60
2022/07/14 00:42:03;;;;;;;3.33;2.50;;;23.60;63.50;;;;;;10373884;28;20089;-61
2022/07/14 00:47:04;;;;;;;4.53;2.83;;;23.50;63.40;;;;;;10381506;28;20056;-60
2022/07/14 00:52:05;;;;;;;5.55;3.22;;;23.60;63.50;;;;;;10410195;28;20047;-60
2022/07/14 00:57:05;;;;;;;4.18;2.90;;;23.60;63.40;;;;;;10401377;28;20038;-60
2022/07/14 01:02:06;;;;;;;4.53;3.13;;;23.50;63.50;;;;;;10412286;28;20040;-60
2022/07/14 01:07:07;;;;;;;3.10;2.53;;;23.50;63.40;;;;;;10369349;28;20037;-61
2022/07/14 01:12:09;;;;;;;3.92;2.25;;;23.50;63.20;;;;;;10386328;28;20505;-61
2022/07/14 01:17:10;;;;;;;4.55;3.10;;;23.50;63.30;;;;;;10371755;28;20032;-61
2022/07/14 01:22:12;;;;;;;3.72;2.47;;;23.50;63.30;;;;;;10380261;28;20055;-61
2022/07/14 01:27:12;;;;;;;4.55;2.85;;;23.50;63.30;;;;;;10398131;28;20443;-61
2022/07/14 01:32:13;;;;;;;4.22;2.35;;;23.50;63.20;;;;;;10387968;28;20063;-60
2022/07/14 01:37:14;;;;;;;4.28;2.53;;;23.50;63.10;;;;;;10371166;28;20679;-60
2022/07/14 01:42:15;;;;;;;3.35;2.60;;;23.50;63.10;;;;;;10391528;28;20041;-61
2022/07/14 01:47:15;;;;;;;3.15;2.45;;;23.50;63.10;;;;;;10412322;28;20026;-61
2022/07/14 01:52:16;;;;;;;3.13;2.20;;;23.50;63.10;;;;;;10393374;28;20072;-60
2022/07/14 01:57:17;;;;;;;3.30;2.00;;;23.40;63.00;;;;;;10370356;28;20026;-60
2022/07/14 02:02:17;;;;;;;4.68;2.83;;;23.40;62.90;;;;;;10373446;28;20033;-61
2022/07/14 02:07:18;;;;;;;3.45;2.03;;;23.40;63.00;;;;;;10393364;28;20061;-60
2022/07/14 02:12:19;;;;;;;5.07;2.90;;;23.40;63.00;;;;;;10374440;28;20034;-61
2022/07/14 02:17:19;;;;;;;4.57;2.55;;;23.40;62.80;;;;;;10369247;28;20369;-60
2022/07/14 02:22:20;;;;;;;4.30;2.60;;;23.40;62.80;;;;;;10368442;28;20034;-61
2022/07/14 02:27:21;;;;;;;3.22;2.38;;;23.40;62.80;;;;;;10369281;28;20024;-61
2022/07/14 02:32:22;;;;;;;3.97;2.47;;;23.40;62.80;;;;;;10385840;28;20036;-61
2022/07/14 02:37:22;;;;;;;4.22;2.65;;;23.40;62.70;;;;;;10396936;28;20044;-61
2022/07/14 02:42:23;;;;;;;4.05;2.60;;;23.40;62.70;;;;;;10394480;28;20034;-61
2022/07/14 02:47:24;;;;;;;2.90;2.15;;;23.40;62.60;;;;;;10388747;28;20258;-61
2022/07/14 02:52:25;;;;;;;3.72;2.25;;;23.40;62.60;;;;;;10381678;28;20552;-61
2022/07/14 02:57:26;;;;;;;3.60;2.20;;;23.30;62.60;;;;;;10367964;28;20034;-61
2022/07/14 03:02:26;;;;;;;2.70;1.90;;;23.30;62.60;;;;;;10371883;28;20112;-61
2022/07/14 03:07:27;;;;;;;3.22;1.90;;;23.30;62.40;;;;;;10389911;28;20121;-61
2022/07/14 03:12:28;;;;;;;4.97;2.78;;;23.30;62.40;;;;;;10371389;28;20021;-61
2022/07/14 03:17:29;;;;;;;3.55;2.38;;;23.30;62.40;;;;;;10393815;28;20488;-60
2022/07/14 03:22:29;;;;;;;3.97;2.28;;;23.30;62.30;;;;;;10392795;28;20103;-61
2022/07/14 03:27:30;;;;;;;4.18;2.10;;;23.30;62.40;;;;;;10391855;28;20043;-61
2022/07/14 03:32:31;;;;;;;3.10;2.13;;;23.30;62.20;;;;;;10392786;28;20026;-61
2022/07/14 03:37:32;;;;;;;2.83;2.30;;;23.20;62.00;;;;;;10386109;28;20069;-61
2022/07/14 03:42:33;;;;;;;3.72;1.92;;;23.20;62.10;;;;;;10407655;28;20033;-60
2022/07/14 03:47:34;;;;;;;2.80;2.15;;;23.30;62.00;;;;;;10377884;28;20087;-61
2022/07/14 03:52:34;;;;;;;3.47;2.10;;;23.20;61.90;;;;;;10375869;28;20113;-60
2022/07/14 03:57:35;;;;;;;3.47;1.95;;;23.20;61.90;;;;;;10396650;28;20029;-61
2022/07/14 04:02:36;;;;;;;2.88;1.80;;;23.20;61.80;;;;;;10393863;28;20030;-61
2022/07/14 04:07:36;;;;;;;3.08;2.00;;;23.20;61.80;;;;;;10382793;28;20109;-61
2022/07/14 04:12:37;;;;;;;4.45;2.22;;;23.20;61.70;;;;;;10393905;28;20376;-61
2022/07/14 04:17:38;;;;;;;4.20;2.20;;;23.10;61.40;;;;;;10402757;28;20037;-60
2022/07/14 04:22:38;;;;;;;2.65;2.25;;;23.10;62.30;;;;;;10394835;28;20030;-61
2022/07/14 04:27:40;;;;;;;2.47;2.10;;;23.10;61.60;;;;;;10411446;28;20357;-61
2022/07/14 04:32:42;;;;;;;2.60;1.80;;;23.10;61.60;;;;;;10402626;28;20038;-60
2022/07/14 04:37:43;;;;;;;2.10;1.80;;;23.10;61.30;;;;;;10393484;28;20080;-60
2022/07/14 04:42:43;;;;;;;3.65;1.60;;;23.10;61.40;;;;;;10406349;28;20084;-61
2022/07/14 04:47:44;;;;;;;4.47;1.85;;;23.10;61.50;;;;;;10400043;28;20180;-61
2022/07/14 04:52:47;;;;;;;4.63;1.80;;;23.10;61.40;;;;;;10399565;28;20362;-59
2022/07/14 04:57:47;;;;;;;7.78;2.00;;;23.10;61.90;;;;;;10403109;28;20490;-62
2022/07/14 05:02:48;;;;;;;4.88;1.85;;;23.10;61.80;;;;;;10394385;28;20056;-61
2022/07/14 05:07:49;;;;;;;6.05;2.15;;;23.20;61.80;;;;;;10408782;28;20026;-59
2022/07/14 05:12:50;;;;;;;7.10;2.55;;;23.20;62.30;;;;;;10387899;28;20029;-61
2022/07/14 05:17:51;;;;;;;8.55;1.77;;;23.30;62.10;;;;;;10387964;28;20056;-59
2022/07/14 05:22:51;;;;;;;10.18;2.80;;;23.30;62.90;;;;;;10373054;28;20091;-60
2022/07/14 05:27:52;;;;;;;7.40;2.40;;;23.30;62.70;;;;;;10381285;28;20065;-59
2022/07/14 05:32:53;;;;;;;8.90;2.03;;;23.20;62.60;;;;;;10385588;28;20342;-59
2022/07/14 05:37:54;;;;;;;9.05;3.00;;;23.20;62.60;;;;;;10395328;28;20549;-61
2022/07/14 05:42:54;;;;;;;9.55;2.35;;;23.20;62.30;;;;;;10380786;28;20132;-61
2022/07/14 05:47:55;;;;;;;9.93;2.83;;;23.20;62.60;;;;;;10391526;28;20141;-59
2022/07/14 05:52:56;;;;;;;8.82;1.98;;;23.20;62.50;;;;;;10374682;28;20429;-61
2022/07/14 05:57:57;;;;;;;6.72;2.53;;;23.20;62.70;;;;;;10384143;28;20030;-61
2022/07/14 06:02:57;;;;;;;9.88;2.72;;;23.20;62.80;;;;;;10392958;28;20075;-61
2022/07/14 06:07:58;;;;;;;7.95;2.63;;;23.20;62.90;;;;;;10385249;28;20034;-63
2022/07/14 06:12:59;;;;;;;9.52;3.85;;;23.20;62.80;;;;;;10385495;28;20033;-63
2022/07/14 06:18:00;;;;;;;7.20;2.53;;;23.20;62.70;;;;;;10387810;28;20048;-63
2022/07/14 06:23:00;;;;;;;7.30;2.70;;;23.20;63.60;;;;;;10395216;28;20030;-63
2022/07/14 06:28:01;;;;;;;9.10;2.58;;;23.10;62.60;;;;;;10377532;28;20029;-63
2022/07/14 06:33:02;;;;;;;6.35;2.42;;;23.10;62.50;;;;;;10369762;28;20018;-62
2022/07/14 06:38:03;;;;;;;6.82;1.67;;;23.20;62.70;;;;;;10390671;28;20065;-62
2022/07/14 06:43:03;;;;;;;6.57;2.03;;;23.10;62.50;;;;;;10374830;28;20508;-62
2022/07/14 06:48:04;;;;;;;4.82;2.50;;;23.10;62.60;;;;;;10375457;28;20038;-62
2022/07/14 06:53:05;;;;;;;6.20;2.00;;;23.10;62.60;;;;;;10368212;28;20105;-61
2022/07/14 06:58:06;;;;;;;5.90;2.15;;;23.10;62.60;;;;;;10400179;28;20100;-62
2022/07/14 07:03:11;;;;;;;7.20;1.73;;;23.10;62.70;;;;;;10406112;28;20261;-61
2022/07/14 07:08:13;;;;;;;5.82;2.13;;;23.10;62.70;;;;;;10404853;28;20725;-61
2022/07/14 07:13:13;;;;;;;7.10;2.15;;;23.10;62.30;;;;;;10379432;28;20031;-61
2022/07/14 07:18:14;;;;;;;5.78;2.00;;;23.10;62.00;;;;;;10408242;28;20113;-62
2022/07/14 07:23:15;;;;;;;4.43;1.92;;;23.20;61.90;;;;;;10397091;28;20104;-62
2022/07/14 07:28:15;;;;;;;5.18;1.65;;;23.20;61.90;;;;;;10394376;28;20030;-61
2022/07/14 07:33:16;;;;;;;5.07;2.25;;;23.20;61.90;;;;;;10378619;28;20056;-61
2022/07/14 07:38:17;;;;;;;5.28;2.10;;;23.20;61.80;;;;;;10365259;28;20046;-61
2022/07/14 07:43:21;;;;;;;5.00;1.83;;;23.20;61.90;;;;;;10365724;28;20397;-62
2022/07/14 07:48:22;;;;;;;5.40;2.22;;;23.20;61.80;;;;;;10382894;28;20030;-61
2022/07/14 07:53:23;;;;;;;5.43;1.80;;;23.20;61.80;;;;;;10392678;28;20667;-61
2022/07/14 07:58:24;;;;;;;4.70;1.95;;;23.20;61.80;;;;;;10392988;28;20044;-61
2022/07/14 08:03:24;;;;;;;4.53;2.15;;;23.20;61.80;;;;;;10380676;28;20033;-62
2022/07/14 08:08:25;;;;;;;4.30;2.58;;;23.30;61.70;;;;;;10405617;28;20469;-61
2022/07/14 08:13:26;;;;;;;4.40;2.10;;;23.30;61.60;;;;;;10366399;28;20148;-61
2022/07/14 08:18:26;;;;;;;5.32;1.98;;;23.30;61.90;;;;;;10361986;28;20413;-61
2022/07/14 08:23:27;;;;;;;4.13;1.40;;;23.30;61.80;;;;;;10394674;28;20104;-61
2022/07/14 08:28:28;;;;;;;2.95;1.60;;;23.30;61.70;;;;;;10406796;28;20026;-61
2022/07/14 08:33:29;;;;;;;2.88;1.80;;;23.30;61.70;;;;;;10365753;28;20018;-62
2022/07/14 08:38:29;;;;;;;5.47;2.50;;;23.30;61.70;;;;;;10368152;28;20375;-62
2022/07/14 08:43:30;;;;;;;4.65;1.77;;;23.30;61.70;;;;;;10371862;28;20462;-61
2022/07/14 08:48:33;;;;;;;4.20;1.40;;;23.30;61.70;;;;;;10407366;28;20041;-61
2022/07/14 08:53:34;;;;;;;4.63;2.05;;;23.30;61.60;;;;;;10399071;28;20113;-61
2022/07/14 08:58:35;;;;;;;1.98;1.13;;;23.30;61.60;;;;;;10385921;28;20132;-62
2022/07/14 09:03:36;;;;;;;5.55;1.63;;;23.30;61.70;;;;;;10386723;28;20431;-62
2022/07/14 09:08:56;;;;;;;3.53;1.80;;;23.30;61.50;;;;;;10398581;28;20041;-62
2022/07/14 09:14:09;;;;;;;4.53;2.03;;;23.30;61.60;;;;;;10398600;28;20562;-61
2022/07/14 09:19:15;;;;;;;3.50;1.73;;;23.30;61.50;;;;;;10398255;28;20037;-61
2022/07/14 09:24:16;;;;;;;2.47;1.30;;;23.30;61.40;;;;;;10397791;28;20064;-61
2022/07/14 09:29:26;;;;;;;4.18;1.60;;;23.30;61.60;;;;;;10404842;28;20616;-61
2022/07/14 09:34:36;;;;;;;2.55;1.65;;;23.30;61.30;;;;;;10383358;28;20105;-62
2022/07/14 09:39:57;;;;;;;2.30;1.30;;;23.40;61.50;;;;;;10369555;28;20042;-61
2022/07/14 09:45:09;;;;;;;3.40;1.50;;;23.40;61.40;;;;;;10370669;28;20061;-61
2022/07/14 09:50:09;;;;;;;3.38;1.45;;;23.40;61.50;;;;;;10365136;28;20029;-62
2022/07/14 09:55:22;;;;;;;3.25;1.60;;;23.40;61.50;;;;;;10365585;28;20087;-62
2022/07/14 10:00:22;;;;;;;2.45;1.33;;;23.40;61.30;;;;;;10396657;28;20087;-62
2022/07/14 10:05:24;;;;;;;4.40;1.52;;;23.40;61.30;;;;;;10393874;28;20034;-61
2022/07/14 10:10:25;;;;;;;1.77;1.35;;;23.40;61.10;;;;;;10368425;28;20033;-61
2022/07/14 10:15:26;;;;;;;3.38;1.17;;;23.40;61.30;;;;;;10368313;28;20040;-62
2022/07/14 10:20:27;;;;;;;2.65;1.50;;;23.40;61.50;;;;;;10369853;28;20026;-61
2022/07/14 10:25:28;;;;;;;2.83;1.40;;;23.40;61.30;;;;;;10351666;28;20088;-61
2022/07/14 10:31:04;;;;;;;2.92;1.20;;;23.40;61.10;;;;;;10378772;28;20394;-61
2022/07/14 10:36:13;;;;;;;2.03;1.60;;;23.40;61.00;;;;;;10381177;28;20030;-62
2022/07/14 10:41:19;;;;;;;;;;;23.40;61.30;;;;;;10369311;28;20068;-61
2022/07/14 10:46:42;;;;;;;1.83;1.08;;;23.50;61.00;;;;;;10368005;28;20004;-62
2022/07/14 10:51:45;;;;;;;2.58;1.10;;;23.40;61.00;;;;;;10383970;28;20048;-62
2022/07/14 10:56:46;;;;;;;2.00;1.30;;;23.50;61.30;;;;;;10409123;28;20048;-61
2022/07/14 11:02:15;;;;;;;3.38;1.50;;;23.50;61.30;;;;;;10408066;28;20511;-62
2022/07/14 11:08:08;;;;;;;2.55;1.40;;;23.50;61.10;;;;;;10398460;28;20393;-62
2022/07/14 11:13:09;;;;;;;2.42;1.17;;;23.50;61.30;;;;;;10407010;28;20053;-61
2022/07/14 11:18:21;;;;;;;2.70;1.20;;;23.50;61.50;;;;;;10366623;28;20034;-61
2022/07/14 11:23:26;;;;;;;2.78;1.30;;;23.50;61.40;;;;;;10367271;28;20034;-62
2022/07/14 11:28:43;;;;;;;2.22;1.60;;;23.40;61.20;;;;;;10373354;28;20029;-61
2022/07/14 11:39:16;;;;;;;1.30;1.00;;;23.40;61.00;;;;;;10365711;28;20050;-62
2022/07/14 11:44:35;;;;;;;1.42;1.02;;;23.40;61.30;;;;;;10366748;28;20046;-61
2022/07/14 11:49:37;;;;;;;2.72;1.45;;;23.40;61.30;;;;;;10366893;28;20092;-62
2022/07/14 11:54:40;;;;;;;2.03;1.50;;;23.40;61.00;;;;;;10364843;28;20021;-62
2022/07/14 11:59:42;;;;;;;3.30;1.00;;;23.40;61.40;;;;;;10366304;28;20026;-62
2022/07/14 12:04:55;;;;;;;1.88;1.20;;;23.40;61.40;;;;;;10388125;28;20112;-62
2022/07/14 12:09:55;;;;;;;2.80;1.20;;;23.40;61.60;;;;;;10379309;28;20029;-61
2022/07/14 12:14:56;;;;;;;3.17;1.00;;;23.40;61.40;;;;;;10386717;28;20163;-61
2022/07/14 12:19:57;;;;;;;1.73;1.63;;;23.40;61.50;;;;;;10415278;28;20121;-62
2022/07/14 12:24:58;;;;;;;3.22;1.00;;;23.40;61.40;;;;;;10379979;28;20088;-62
2022/07/14 12:29:59;;;;;;;3.30;1.60;;;23.40;61.50;;;;;;10389984;28;20030;-62
2022/07/14 12:35:00;;;;;;;3.35;1.17;;;23.50;61.50;;;;;;10373412;28;20436;-62
2022/07/14 12:40:01;;;;;;;1.98;1.20;;;23.50;61.30;;;;;;10384534;28;20199;-61
2022/07/14 12:45:07;;;;;;;2.40;0.90;;;23.50;61.30;;;;;;10399397;28;20036;-61
2022/07/14 12:50:23;;;;;;;2.42;1.27;;;23.50;61.20;;;;;;10403520;28;20473;-62
2022/07/14 12:55:44;;;;;;;2.65;1.38;;;23.50;61.20;;;;;;10398492;28;20489;-62
2022/07/14 13:00:44;;;;;;;2.25;1.05;;;23.60;61.20;;;;;;10401715;28;20488;-62
2022/07/14 13:05:54;;;;;;;3.75;1.20;;;23.60;61.00;;;;;;10411821;28;20030;-62
2022/07/14 13:10:58;;;;;;;2.00;1.08;;;23.60;60.90;;;;;;10411408;28;20025;-62
2022/07/14 13:16:17;;;;;;;3.08;1.38;;;23.60;61.00;;;;;;10395587;28;20029;-62
2022/07/14 13:21:18;;;;;;;2.05;1.02;;;23.60;60.80;;;;;;10408814;28;20093;-62
2022/07/14 13:26:19;;;;;;;1.70;1.10;;;23.60;60.80;;;;;;10368613;28;20557;-61
2022/07/14 13:31:24;;;;;;;2.50;1.15;;;23.60;60.70;;;;;;10394404;28;20237;-61
2022/07/14 13:36:25;;;;;;;1.70;1.08;;;23.60;60.80;;;;;;10397508;28;20431;-62
2022/07/14 13:41:26;;;;;;;3.72;1.35;;;23.50;60.90;;;;;;10396819;28;20081;-61
2022/07/14 13:46:27;;;;;;;2.60;1.17;;;23.50;60.80;;;;;;10411830;28;20034;-62
2022/07/14 13:56:48;;;;;;;2.97;1.10;;;23.40;60.90;;;;;;10397943;28;20041;-61
2022/07/14 14:01:50;;;;;;;1.40;1.10;;;23.40;61.00;;;;;;10383263;28;20033;-62
2022/07/14 14:06:51;;;;;;;2.00;1.60;;;23.40;60.80;;;;;;10410873;28;20064;-61
2022/07/14 14:11:51;;;;;;;1.95;1.40;;;23.40;61.00;;;;;;10368477;28;20037;-61
2022/07/14 14:16:54;;;;;;;1.17;0.80;;;23.40;60.70;;;;;;10368279;28;20022;-61
2022/07/14 14:21:55;;;;;;;1.38;1.13;;;23.40;61.60;;;;;;10365311;28;20069;-62
2022/07/14 14:26:55;;;;;;;2.65;1.20;;;23.40;60.90;;;;;;10368973;28;20036;-61
2022/07/14 14:31:58;;;;;;;2.63;1.13;;;23.40;60.80;;;;;;10396825;28;20429;-61
2022/07/14 14:36:59;;;;;;;2.42;1.42;;;23.40;61.00;;;;;;10409224;28;20033;-61
2022/07/14 14:41:59;;;;;;;2.88;1.33;;;23.40;61.10;;;;;;10409573;28;20045;-61
2022/07/14 14:47:00;;;;;;;2.53;1.27;;;23.40;61.00;;;;;;10395067;28;20072;-61
2022/07/14 14:52:01;;;;;;;2.33;1.17;;;23.40;60.80;;;;;;10381620;28;20053;-62
2022/07/14 14:57:02;;;;;;;1.80;0.90;;;23.40;60.80;;;;;;10381182;28;20025;-61
2022/07/14 15:02:03;;;;;;;1.25;1.00;;;23.40;61.10;;;;;;10394341;28;20025;-62
2022/07/14 15:07:04;;;;;;;2.63;1.35;;;23.40;61.10;;;;;;10391086;28;20392;-61
2022/07/14 15:12:05;;;;;;;2.40;1.20;;;23.40;61.00;;;;;;10362880;28;20036;-62
2022/07/14 15:17:06;;;;;;;1.30;1.15;;;23.40;61.20;;;;;;10374982;28;20025;-62
2022/07/14 15:22:11;;;;;;;18.98;10.55;;;23.40;61.00;;;;;;10387440;28;20104;-62
2022/07/14 15:27:14;;;;;;;4.47;2.05;;;23.50;64.10;;;;;;10391683;28;20478;-62
2022/07/14 15:32:15;;;;;;;5.72;3.10;;;23.60;61.70;;;;;;10400078;28;20048;-60
2022/07/14 15:37:16;;;;;;;5.18;3.30;;;23.60;61.30;;;;;;10382116;28;20041;-61
2022/07/14 15:42:17;;;;;;;8.48;6.53;;;23.70;61.30;;;;;;10367210;28;20452;-61
2022/07/14 15:47:17;;;;;;;7.68;4.80;;;23.90;61.30;;;;;;10405051;28;20036;-60
2022/07/14 15:52:18;;;;;;;7.70;4.65;;;24.00;62.70;;;;;;10376319;28;20642;-60
2022/07/14 15:57:19;;;;;;;5.65;3.60;;;24.00;63.30;;;;;;10390522;28;20116;-61
2022/07/14 16:02:19;;;;;;;15.50;9.70;;;24.10;61.90;;;;;;10368015;28;20040;-61
2022/07/14 16:07:20;;;;;;;12.85;8.60;;;24.20;63.80;;;;;;10388127;28;20045;-60
2022/07/14 16:12:21;;;;;;;12.82;8.63;;;24.20;64.20;;;;;;10390494;28;20026;-61
2022/07/14 16:17:21;;;;;;;12.07;7.93;;;24.10;64.00;;;;;;10380751;28;20037;-62
2022/07/14 16:22:22;;;;;;;10.52;6.97;;;24.00;64.20;;;;;;10393053;28;20558;-60
2022/07/14 16:27:23;;;;;;;19.17;7.82;;;23.90;63.80;;;;;;10388263;28;20033;-60
2022/07/14 16:32:24;;;;;;;13.90;6.57;;;23.90;63.70;;;;;;10383994;28;20675;-61
2022/07/14 16:37:25;;;;;;;12.75;5.88;;;23.80;64.00;;;;;;10383169;28;20057;-60
2022/07/14 16:42:26;;;;;;;8.05;5.25;;;23.80;63.70;;;;;;10383792;28;20091;-61
2022/07/14 16:47:27;;;;;;;12.85;5.28;;;23.70;63.40;;;;;;10364264;28;20489;-61
2022/07/14 16:52:27;;;;;;;7.95;5.05;;;23.70;63.30;;;;;;10377506;28;20479;-62
2022/07/14 16:57:28;;;;;;;9.85;4.75;;;23.70;63.00;;;;;;10395203;28;20037;-61
2022/07/14 17:02:29;;;;;;;7.38;4.55;;;23.60;62.90;;;;;;10399168;28;20033;-61
2022/07/14 17:07:29;;;;;;;6.38;5.07;;;23.60;62.70;;;;;;10410711;28;20484;-61
2022/07/14 17:12:30;;;;;;;9.40;4.10;;;23.60;62.50;;;;;;10395304;28;20025;-61
2022/07/14 17:17:31;;;;;;;7.65;4.18;;;23.60;62.50;;;;;;10389519;28;20029;-59
2022/07/14 17:22:32;;;;;;;8.00;4.00;;;23.60;62.40;;;;;;10396714;28;20033;-62
2022/07/14 17:27:32;;;;;;;13.20;4.72;;;23.60;62.10;;;;;;10381251;28;20033;-61
2022/07/14 17:32:33;;;;;;;9.57;5.00;;;23.60;61.80;;;;;;10389297;28;20026;-60
2022/07/14 17:37:34;;;;;;;6.70;3.70;;;23.70;62.50;;;;;;10385119;28;20121;-60
2022/07/14 17:42:34;;;;;;;8.32;3.60;;;23.70;62.10;;;;;;10400246;28;20046;-60
2022/07/14 17:47:35;;;;;;;14.10;4.38;;;23.70;62.20;;;;;;10376005;28;20029;-60
2022/07/14 17:52:36;;;;;;;10.32;3.50;;;23.60;62.60;;;;;;10376718;28;20040;-60
2022/07/14 17:57:37;;;;;;;12.95;3.90;;;23.60;62.10;;;;;;10387107;28;20169;-61
2022/07/14 18:02:38;;;;;;;7.53;2.83;;;23.60;62.60;;;;;;10388405;28;20105;-60
2022/07/14 18:07:38;;;;;;;8.02;3.15;;;23.60;62.60;;;;;;10383280;28;20193;-61
2022/07/14 18:12:39;;;;;;;10.00;2.88;;;23.60;62.70;;;;;;10371782;28;20029;-61
2022/07/14 18:17:40;;;;;;;6.43;2.88;;;23.60;62.70;;;;;;10391747;28;20431;-60
2022/07/14 18:22:42;;;;;;;8.80;2.85;;;23.60;62.70;;;;;;10389337;28;20064;-62
2022/07/14 18:27:43;;;;;;;11.60;3.25;;;23.60;62.10;;;;;;10399417;28;20648;-61
2022/07/14 18:32:44;;;;;;;5.40;2.90;;;23.60;62.20;;;;;;10392705;28;20041;-60
2022/07/14 18:37:45;;;;;;;8.30;2.40;;;23.60;62.20;;;;;;10394921;28;20124;-60
2022/07/14 18:42:46;;;;;;;5.75;2.42;;;23.60;62.20;;;;;;10380516;28;20028;-61
2022/07/14 18:47:46;;;;;;;10.52;2.85;;;23.60;61.80;;;;;;10379644;28;20412;-60
2022/07/14 18:52:49;;;;;;;6.25;2.38;;;23.60;61.60;;;;;;10366782;28;20368;-60
2022/07/14 18:57:50;;;;;;;7.88;2.40;;;23.50;61.50;;;;;;10379387;28;20034;-62
2022/07/14 19:02:51;;;;;;;6.82;2.42;;;23.50;60.90;;;;;;10379186;28;20034;-61
2022/07/14 19:07:55;;;;;;;5.85;2.33;;;23.50;61.20;;;;;;10384853;28;20026;-65
2022/07/14 19:12:57;;;;;;;7.15;3.08;;;23.50;61.50;;;;;;10378419;28;20091;-62
2022/07/14 19:17:57;;;;;;;10.90;2.95;;;23.60;61.50;;;;;;10383234;28;20091;-61
2022/07/14 19:22:58;;;;;;;7.80;2.67;;;23.60;62.00;;;;;;10391883;28;20026;-64
2022/07/14 19:28:00;;;;;;;5.93;1.80;;;23.50;61.30;;;;;;10403296;28;20108;-62
2022/07/14 19:33:02;;;;;;;3.45;2.00;;;23.50;61.70;;;;;;10401809;28;20346;-62
2022/07/14 19:38:05;;;;;;;5.35;2.85;;;23.50;61.70;;;;;;10405000;28;20118;-62
2022/07/14 19:43:07;;;;;;;4.72;1.80;;;23.50;61.70;;;;;;10408469;28;20032;-63
2022/07/14 19:48:10;;;;;;;4.07;1.92;;;23.50;61.60;;;;;;10386853;28;20034;-62
2022/07/14 19:53:11;;;;;;;5.00;2.17;;;23.50;61.50;;;;;;10377012;28;20022;-62
2022/07/14 19:58:12;;;;;;;2.88;1.63;;;23.50;61.50;;;;;;10388944;28;20381;-63
2022/07/14 20:03:13;;;;;;;4.70;1.60;;;23.50;61.40;;;;;;10369708;28;20030;-63
2022/07/14 20:08:13;;;;;;;7.38;2.30;;;23.50;61.50;;;;;;10387058;28;20054;-63
2022/07/14 20:13:14;;;;;;;7.78;2.00;;;23.50;61.50;;;;;;10368023;28;20024;-62
2022/07/14 20:18:16;;;;;;;3.70;1.67;;;23.50;61.50;;;;;;10379531;28;20029;-62
2022/07/14 20:23:16;;;;;;;2.17;1.25;;;23.50;61.40;;;;;;10381467;28;20056;-62
2022/07/14 20:33:36;;;;;;;3.85;1.83;;;23.40;61.30;;;;;;10386024;28;20034;-62
2022/07/14 20:38:37;;;;;;;3.20;1.38;;;23.40;61.10;;;;;;10388619;28;20045;-62
2022/07/14 20:43:37;;;;;;;3.05;1.60;;;23.40;61.30;;;;;;10390106;28;20482;-62
2022/07/14 20:48:38;;;;;;;2.90;1.80;;;23.40;61.10;;;;;;10391934;28;20036;-62
2022/07/14 20:53:39;;;;;;;2.88;1.67;;;23.40;61.20;;;;;;10388484;28;20028;-63
2022/07/14 20:58:39;;;;;;;4.80;2.00;;;23.40;61.10;;;;;;10374779;28;20033;-62
2022/07/14 21:03:41;;;;;;;3.10;1.88;;;23.40;61.10;;;;;;10389580;28;20507;-62
2022/07/14 21:08:41;;;;;;;3.47;2.22;;;23.40;60.90;;;;;;10380339;28;20044;-63
2022/07/14 21:13:42;;;;;;;3.50;1.70;;;23.40;61.10;;;;;;10372530;28;20033;-63
2022/07/14 21:18:43;;;;;;;3.30;1.45;;;23.40;61.00;;;;;;10373777;28;20109;-62
2022/07/14 21:23:44;;;;;;;4.30;1.88;;;23.40;61.00;;;;;;10385708;28;20361;-62
2022/07/14 21:28:44;;;;;;;4.22;1.40;;;23.40;61.10;;;;;;10380133;28;20042;-62
2022/07/14 21:33:45;;;;;;;4.90;1.60;;;23.40;61.10;;;;;;10386180;28;20101;-63
2022/07/14 21:38:46;;;;;;;3.28;1.85;;;23.40;61.00;;;;;;10371325;28;20101;-63
2022/07/14 21:43:47;;;;;;;2.50;1.95;;;23.40;61.00;;;;;;10371687;28;20153;-63
2022/07/14 21:48:48;;;;;;;5.60;1.70;;;23.40;60.90;;;;;;10371674;28;20064;-63
2022/07/14 21:53:50;;;;;;;3.70;1.60;;;23.40;60.90;;;;;;10369637;28;20620;-63
2022/07/14 21:58:53;;;;;;;3.30;1.92;;;23.30;60.80;;;;;;10393518;28;20038;-62
2022/07/14 22:03:53;;;;;;;2.75;1.48;;;23.30;61.00;;;;;;10386873;28;20033;-63
2022/07/14 22:08:54;;;;;;;2.75;1.23;;;23.40;60.80;;;;;;10380158;28;20034;-63
2022/07/14 22:13:55;;;;;;;2.30;1.58;;;23.30;60.60;;;;;;10382141;28;20185;-62
2022/07/14 22:18:55;;;;;;;2.90;1.48;;;23.30;60.50;;;;;;10395106;28;20124;-63
2022/07/14 22:23:56;;;;;;;3.97;1.90;;;23.30;60.60;;;;;;10389034;28;20034;-62
2022/07/14 22:28:57;;;;;;;4.80;1.75;;;23.30;60.50;;;;;;10391097;28;20034;-62
2022/07/14 22:33:58;;;;;;;2.85;1.60;;;23.30;60.50;;;;;;10370395;28;20070;-62
2022/07/14 22:38:58;;;;;;;3.03;1.52;;;23.30;60.50;;;;;;10370531;28;20409;-62
2022/07/14 22:43:59;;;;;;;4.35;2.25;;;23.30;60.20;;;;;;10370358;28;20057;-63
2022/07/14 22:49:00;;;;;;;2.78;1.70;;;23.30;60.20;;;;;;10373121;28;20045;-63
2022/07/14 22:54:01;;;;;;;4.30;2.08;;;23.30;60.20;;;;;;10370374;28;20130;-63
2022/07/14 22:59:02;;;;;;;2.20;1.70;;;23.30;60.00;;;;;;10367713;28;20053;-62
2022/07/14 23:04:03;;;;;;;2.65;1.58;;;23.30;60.00;;;;;;10386182;28;20036;-63
2022/07/14 23:09:04;;;;;;;4.40;1.92;;;23.30;60.00;;;;;;10384100;28;20522;-63
2022/07/14 23:14:05;;;;;;;3.53;1.40;;;23.20;60.10;;;;;;10391082;28;20061;-62
2022/07/14 23:19:06;;;;;;;3.92;1.80;;;23.30;60.00;;;;;;10391947;28;20033;-63
2022/07/14 23:24:07;;;;;;;2.60;1.58;;;23.30;59.70;;;;;;10384846;28;20461;-63
2022/07/14 23:29:08;;;;;;;3.20;1.50;;;23.30;59.80;;;;;;10390350;28;20033;-63
2022/07/14 23:34:10;;;;;;;3.13;1.45;;;23.20;59.80;;;;;;10366944;28;20018;-62
2022/07/14 23:39:11;;;;;;;2.47;1.48;;;23.20;59.80;;;;;;10391763;28;20048;-63
2022/07/14 23:44:11;;;;;;;2.65;1.48;;;23.20;59.80;;;;;;10379448;28;20543;-63
2022/07/14 23:49:12;;;;;;;2.00;1.30;;;23.20;59.60;;;;;;10381365;28;20036;-63
2022/07/14 23:54:13;;;;;;;2.60;1.77;;;23.20;59.50;;;;;;10382500;28;20120;-62
2022/07/14 23:59:13;;;;;;;2.40;1.40;;;23.20;59.60;;;;;;10397909;28;20080;-63
